Time,TemperatureF,DewpointF,PressureIn,WindDirection,WindDirectionDegrees,WindSpeedMPH,WindSpeedGustMPH,Humidity,HourlyPrecipIn,Conditions,Clouds,dailyrainin,SoftwareType,DateUTC
2013-10-02 00:11:00,43.0,42.0,30.21,SE,137,1.0,1.0,96,-99.99,,,-99.99,,2013-10-02 07:11:00,
2013-10-02 00:42:00,42.0,41.0,30.20,ESE,119,4.0,5.0,97,-99.99,,,-99.99,,2013-10-02 07:42:00,
2013-10-02 00:52:00,42.0,41.0,30.20,SE,126,2.0,5.0,97,-99.99,,,-99.99,,2013-10-02 07:52:00,
2013-10-02 01:11:00,41.0,41.0,30.20,SE,137,1.0,3.0,97,-99.99,,,-99.99,,2013-10-02 08:11:00,
2013-10-02 01:22:00,41.0,40.0,30.20,SE,136,1.0,1.0,97,-99.99,,,-99.99,,2013-10-02 08:22:00,
2013-10-02 01:42:00,41.0,40.0,30.20,South,177,0.0,2.0,98,-99.99,,,-99.99,,2013-10-02 08:42:00,
2013-10-02 02:11:00,40.0,40.0,30.20,SE,136,1.0,2.0,98,-99.99,,,-99.99,,2013-10-02 09:11:00,
2013-10-02 02:21:00,40.0,40.0,30.20,SSE,161,1.0,1.0,98,-99.99,,,-99.99,,2013-10-02 09:21:00,
2013-10-02 02:43:00,41.0,40.0,30.20,South,178,2.0,3.0,98,-99.99,,,-99.99,,2013-10-02 09:43:00,
2013-10-02 03:12:00,41.0,41.0,30.19,SE,129,1.0,2.0,98,-99.99,,,-99.99,,2013-10-02 10:12:00,
2013-10-02 03:23:00,41.0,41.0,30.19,ESE,114,3.0,4.0,98,-99.99,,,-99.99,,2013-10-02 10:23:00,
2013-10-02 03:42:00,42.0,41.0,30.19,South,191,2.0,3.0,97,-99.99,,,-99.99,,2013-10-02 10:42:00,
2013-10-02 04:21:00,41.0,40.0,30.18,SW,217,2.0,3.0,95,-99.99,,,-99.99,,2013-10-02 11:21:00,
2013-10-02 04:43:00,41.0,40.0,30.17,SE,127,2.0,2.0,96,-99.99,,,-99.99,,2013-10-02 11:43:00,
2013-10-02 05:21:00,41.0,40.0,30.16,SSE,160,1.0,2.0,96,-99.99,,,-99.99,,2013-10-02 12:21:00,
2013-10-02 05:42:00,41.0,40.0,30.16,SSE,163,2.0,3.0,96,-99.99,,,-99.99,,2013-10-02 12:42:00,
2013-10-02 05:52:00,41.0,40.0,30.15,South,186,1.0,3.0,97,-99.99,,,-99.99,,2013-10-02 12:52:00,
2013-10-02 06:22:00,40.0,40.0,30.14,SSE,165,1.0,3.0,97,-99.99,,,-99.99,,2013-10-02 13:22:00,
2013-10-02 06:42:00,40.0,40.0,30.14,SSE,156,1.0,2.0,97,-99.99,,,-99.99,,2013-10-02 13:42:00,
2013-10-02 07:42:00,40.0,40.0,30.14,ESE,106,0.0,1.0,97,-99.99,,,-99.99,,2013-10-02 14:42:00,
2013-10-02 08:22:00,41.0,40.0,30.14,SE,133,2.0,4.0,98,-99.99,,,-99.99,,2013-10-02 15:22:00,
2013-10-02 08:43:00,41.0,41.0,30.14,SSW,204,1.0,1.0,97,-99.99,,,-99.99,,2013-10-02 15:43:00,
2013-10-02 09:23:00,44.0,42.0,30.14,South,173,1.0,2.0,93,-99.99,,,-99.99,,2013-10-02 16:23:00,
2013-10-02 09:43:00,44.0,43.0,30.13,ENE,67,1.0,1.0,93,-99.99,,,-99.99,,2013-10-02 16:43:00,
2013-10-02 10:23:00,47.0,44.0,30.14,ESE,103,2.0,3.0,87,-99.99,,,-99.99,,2013-10-02 17:23:00,
2013-10-02 10:42:00,47.0,43.0,30.13,SSE,162,1.0,1.0,85,-99.99,,,-99.99,,2013-10-02 17:42:00,
2013-10-02 11:12:00,48.0,44.0,30.13,NNW,331,1.0,3.0,87,-99.99,,,-99.99,,2013-10-02 18:12:00,
2013-10-02 11:21:00,49.0,45.0,30.12,NE,45,1.0,3.0,86,-99.99,,,-99.99,,2013-10-02 18:21:00,
2013-10-02 12:21:00,50.0,45.0,30.11,NW,308,1.0,2.0,83,-99.99,,,-99.99,,2013-10-02 19:21:00,
2013-10-02 12:42:00,51.0,45.0,30.10,WNW,299,1.0,2.0,79,-99.99,,,-99.99,,2013-10-02 19:42:00,
2013-10-02 13:11:00,56.0,45.0,30.09,NNW,335,1.0,4.0,66,-99.99,,,-99.99,,2013-10-02 20:11:00,
2013-10-02 13:22:00,54.0,45.0,30.08,NNE,33,1.0,1.0,70,-99.99,,,-99.99,,2013-10-02 20:22:00,
2013-10-02 13:42:00,55.0,46.0,30.08,NW,313,1.0,5.0,72,-99.99,,,-99.99,,2013-10-02 20:42:00,
2013-10-02 14:22:00,55.0,45.0,30.06,WNW,284,5.0,11.0,68,-99.99,,,-99.99,,2013-10-02 21:22:00,
2013-10-02 14:44:00,54.0,45.0,30.06,WNW,292,8.0,14.0,68,-99.99,,,-99.99,,2013-10-02 21:44:00,
2013-10-02 15:23:00,55.0,44.0,30.05,WNW,286,9.0,16.0,67,-99.99,,,-99.99,,2013-10-02 22:23:00,
2013-10-02 16:22:00,52.0,43.0,30.05,WNW,286,9.0,20.0,71,-99.99,,,-99.99,,2013-10-02 23:22:00,
2013-10-02 16:42:00,50.0,45.0,30.06,WNW,289,13.0,21.0,80,-99.99,,,-99.99,,2013-10-02 23:42:00,
2013-10-02 17:22:00,50.0,44.0,30.07,West,280,12.0,21.0,80,-99.99,,,-99.99,,2013-10-03 00:22:00,
2013-10-02 17:42:00,50.0,44.0,30.08,WNW,290,9.0,15.0,81,-99.99,,,-99.99,,2013-10-03 00:42:00,
2013-10-02 18:22:00,50.0,45.0,30.08,WNW,292,9.0,15.0,81,-99.99,,,-99.99,,2013-10-03 01:22:00,
2013-10-02 18:52:00,50.0,44.0,30.08,WNW,296,7.0,12.0,81,-99.99,,,-99.99,,2013-10-03 01:52:00,
2013-10-02 19:11:00,50.0,44.0,30.08,WNW,291,9.0,15.0,80,-99.99,,,-99.99,,2013-10-03 02:11:00,
2013-10-02 19:22:00,49.0,44.0,30.08,WNW,295,5.0,9.0,81,-99.99,,,-99.99,,2013-10-03 02:22:00,
2013-10-02 20:22:00,49.0,44.0,30.09,WNW,289,7.0,12.0,83,-99.99,,,-99.99,,2013-10-03 03:22:00,
2013-10-02 20:44:00,49.0,44.0,30.09,West,277,5.0,12.0,84,-99.99,,,-99.99,,2013-10-03 03:44:00,
2013-10-02 21:24:00,48.0,44.0,30.11,SW,217,2.0,5.0,87,-99.99,,,-99.99,,2013-10-03 04:24:00,
2013-10-02 21:44:00,48.0,45.0,30.11,West,259,4.0,5.0,88,-99.99,,,-99.99,,2013-10-03 04:44:00,
2013-10-02 22:43:00,48.0,44.0,30.12,WSW,251,5.0,10.0,85,-99.99,,,-99.99,,2013-10-03 05:43:00,
2013-10-02 23:12:00,48.0,43.0,30.14,WSW,242,4.0,6.0,82,-99.99,,,-99.99,,2013-10-03 06:12:00,
2013-10-02 23:22:00,47.0,42.0,30.14,SW,226,4.0,8.0,80,-99.99,,,-99.99,,2013-10-03 06:22:00,